Time;durP1;ratioP1;P1;durP2;ratioP2;P2;SDS_P1;SDS_P2;PMS_P1;PMS_P2;Temp;Humidity;BMP_temperature;BMP_pressure;BME280_temperature;BME280_humidity;BME280_pressure;Samples;Min_cycle;Max_cycle;Signal;HPM_P1;HPM_P2
2023/03/22 00:01:11;;;;;;;;;;;;;;;7.83;93.90;92450.50;4953044;29;20000;-77
2023/03/22 00:03:37;;;;;;;;;;;;;;;7.83;95.08;92453.13;4970860;28;19917;-76
2023/03/22 00:06:02;;;;;;;;;;;;;;;7.80;94.37;92451.84;4955440;28;20328;-77
2023/03/22 00:08:28;;;;;;;;;;;;;;;7.79;94.78;92446.88;4939540;29;19914;-76
2023/03/22 00:10:53;;;;;;;;;;;;;;;7.80;94.29;92445.84;4956661;29;20268;-77
2023/03/22 00:13:19;;;;;;;;;;;;;;;7.79;94.94;92441.66;4955666;29;19910;-76
2023/03/22 00:15:47;;;;;;;;;;;;;;;7.79;94.95;92446.88;4966376;28;19914;-77
2023/03/22 00:18:13;;;;;;;;;;;;;;;7.77;95.90;92448.97;4958213;28;20296;-76
2023/03/22 00:20:45;;;;;;;;;;;;;;;7.74;95.84;92442.47;4975825;28;19918;-76
2023/03/22 00:23:11;;;;;;;;;;;;;;;7.71;95.74;92443.78;4975706;28;20280;-77
2023/03/22 00:25:36;;;;;;;;;;;;;;;7.71;95.79;92441.19;4974707;28;19918;-77
2023/03/22 00:28:02;;;;;;;;;;;;;;;7.72;96.43;92447.97;4975730;28;19918;-76
2023/03/22 00:30:27;;;;;;;;;;;;;;;7.71;96.56;92443.03;4975845;28;19942;-76
2023/03/22 00:32:53;;;;;;;;;;;;;;;7.70;96.40;92444.06;4975564;28;19924;-76
2023/03/22 00:35:19;;;;;;;;;;;;;;;7.69;95.88;92438.06;4975123;28;19918;-76
2023/03/22 00:37:46;;;;;;;;;;;;;;;7.70;96.19;92438.84;4975751;28;19924;-77
2023/03/22 00:40:12;;;;;;;;;;;;;;;7.71;95.49;92435.22;4976271;28;20005;-77
2023/03/22 00:42:39;;;;;;;;;;;;;;;7.70;95.15;92439.66;4975451;28;19950;-76
2023/03/22 00:48:26;;;;;;;;;;;;;;;7.71;96.42;92435.97;4990812;28;19913;-77
2023/03/22 00:50:52;;;;;;;;;;;;;;;7.70;96.13;92434.44;4974550;28;19924;-77
2023/03/22 00:53:17;;;;;;;;;;;;;;;7.68;97.24;92436.53;4975442;28;20012;-77
2023/03/22 00:55:43;;;;;;;;;;;;;;;7.66;97.31;92428.19;4974614;28;19968;-77
2023/03/22 00:58:08;;;;;;;;;;;;;;;7.60;98.69;92423.28;4975603;28;20040;-77
2023/03/22 01:00:34;;;;;;;;;;;;;;;7.57;98.08;92429.81;4974055;28;19921;-77
2023/03/22 01:03:03;;;;;;;;;;;;;;;7.57;98.57;92434.25;4973939;28;19969;-77
2023/03/22 01:05:33;;;;;;;;;;;;;;;7.55;98.64;92421.47;4974175;28;20450;-77
2023/03/22 01:08:07;;;;;;;;;;;;;;;7.54;99.24;92419.13;4974084;28;19926;-77
2023/03/22 01:10:33;;;;;;;;;;;;;;;7.52;99.84;92422.03;4974189;28;19960;-77
2023/03/22 01:12:59;;;;;;;;;;;;;;;7.52;99.20;92419.44;4989685;28;19910;-77
2023/03/22 01:15:24;;;;;;;;;;;;;;;7.51;99.08;92416.03;4975178;28;19964;-77
2023/03/22 01:17:51;;;;;;;;;;;;;;;7.52;98.50;92422.03;4973105;28;20049;-77
2023/03/22 01:20:16;;;;;;;;;;;;;;;7.53;98.41;92418.38;4973787;28;20304;-77
2023/03/22 01:22:42;;;;;;;;;;;;;;;7.52;97.99;92416.81;4990178;28;19914;-77
2023/03/22 01:25:07;;;;;;;;;;;;;;;7.51;98.43;92421.22;4962341;28;19976;-77
2023/03/22 01:27:33;;;;;;;;;;;;;;;7.49;98.24;92415.50;4938368;29;19967;-77
2023/03/22 01:29:59;;;;;;;;;;;;;;;7.49;98.10;92417.34;4956317;29;20464;-77
2023/03/22 01:32:24;;;;;;;;;;;;;;;7.47;99.02;92420.19;4983246;28;19914;-77
2023/03/22 01:34:51;;;;;;;;;;;;;;;7.45;99.28;92414.50;4974067;28;19918;-77
2023/03/22 01:37:17;;;;;;;;;;;;;;;7.43;99.32;92413.19;4973279;28;19914;-76
2023/03/22 01:39:44;;;;;;;;;;;;;;;7.41;99.05;92410.88;4973476;28;19984;-76
2023/03/22 01:42:13;;;;;;;;;;;;;;;7.40;99.53;92409.31;4957404;28;19933;-77
2023/03/22 01:44:40;;;;;;;;;;;;;;;7.39;99.54;92406.97;4973371;28;20258;-77
2023/03/22 01:47:07;;;;;;;;;;;;;;;7.38;99.65;92405.41;4989383;28;20236;-77
2023/03/22 01:49:33;;;;;;;;;;;;;;;7.35;99.45;92403.34;4973816;28;19918;-77
2023/03/22 01:52:10;;;;;;;;;;;;;;;7.34;99.95;92410.41;4956171;28;20438;-77
2023/03/22 01:54:48;;;;;;;;;;;;;;;7.33;99.14;92397.63;4970258;28;19914;-77
2023/03/22 01:57:46;;;;;;;;;;;;;;;7.28;99.25;92399.22;4953791;29;20250;-77
2023/03/22 02:00:21;;;;;;;;;;;;;;;7.26;100.00;92400.53;4955417;28;19918;-77
2023/03/22 02:03:06;;;;;;;;;;;;;;;7.24;100.00;92394.81;4928302;28;19918;-77
2023/03/22 02:05:37;;;;;;;;;;;;;;;7.23;100.00;92398.47;4968370;28;19958;-76
2023/03/22 02:08:03;;;;;;;;;;;;;;;7.20;99.78;92397.16;4953572;29;19918;-76
2023/03/22 02:10:45;;;;;;;;;;;;;;;7.19;100.00;92398.22;4971582;28;19985;-76
2023/03/22 02:13:27;;;;;;;;;;;;;;;7.16;100.00;92398.75;4953128;29;19918;-76
2023/03/22 02:16:11;;;;;;;;;;;;;;;7.13;100.00;92394.06;4972379;28;20114;-77
2023/03/22 02:18:43;;;;;;;;;;;;;;;7.11;100.00;92400.56;4972515;28;20443;-76
2023/03/22 02:21:21;;;;;;;;;;;;;;;7.08;100.00;92397.47;4957009;28;19917;-76
2023/03/22 02:23:47;;;;;;;;;;;;;;;7.07;100.00;92392.53;4970373;28;20226;-77
2023/03/22 02:26:31;;;;;;;;;;;;;;;7.04;100.00;92395.66;4975189;28;20296;-77
2023/03/22 02:29:03;;;;;;;;;;;;;;;7.01;100.00;92391.00;4974990;28;19965;-77
2023/03/22 02:31:28;;;;;;;;;;;;;;;6.99;100.00;92399.06;4984641;28;19915;-77
2023/03/22 02:33:54;;;;;;;;;;;;;;;6.97;100.00;92390.72;4953144;29;19921;-77
2023/03/22 02:36:21;;;;;;;;;;;;;;;6.98;100.00;92394.09;4953072;29;20428;-77
2023/03/22 02:38:52;;;;;;;;;;;;;;;6.96;100.00;92397.00;4952935;29;19910;-77
2023/03/22 02:41:26;;;;;;;;;;;;;;;6.95;100.00;92397.25;4959576;28;19925;-77
2023/03/22 02:43:52;;;;;;;;;;;;;;;6.93;100.00;92407.16;4971783;28;20028;-77
2023/03/22 02:46:23;;;;;;;;;;;;;;;6.92;100.00;92401.16;4973952;28;19949;-77
2023/03/22 02:49:21;;;;;;;;;;;;;;;6.93;100.00;92405.31;4971813;28;20296;-77
2023/03/22 02:52:16;;;;;;;;;;;;;;;6.91;100.00;92406.63;4960091;28;20033;-77
2023/03/22 02:54:44;;;;;;;;;;;;;;;6.88;100.00;92398.31;4970518;28;19914;-77
2023/03/22 02:57:15;;;;;;;;;;;;;;;6.88;100.00;92407.94;4971810;28;20000;-77
2023/03/22 02:59:42;;;;;;;;;;;;;;;6.83;100.00;92407.97;4972729;28;19921;-77
2023/03/22 03:02:10;;;;;;;;;;;;;;;6.80;100.00;92409.28;4955717;28;19914;-78
2023/03/22 03:04:38;;;;;;;;;;;;;;;6.75;100.00;92414.47;4973415;28;19971;-78
2023/03/22 03:07:08;;;;;;;;;;;;;;;6.72;100.00;92407.19;4972264;28;19914;-77
2023/03/22 03:09:35;;;;;;;;;;;;;;;6.73;100.00;92415.78;4971341;28;19914;-77
2023/03/22 03:12:00;;;;;;;;;;;;;;;6.71;100.00;92404.84;4971507;28;19910;-77
2023/03/22 03:14:27;;;;;;;;;;;;;;;6.70;100.00;92411.13;4971283;28;19925;-77
2023/03/22 03:16:56;;;;;;;;;;;;;;;6.70;100.00;92405.91;4970552;28;19917;-75
2023/03/22 03:19:28;;;;;;;;;;;;;;;6.70;100.00;92405.91;4966330;28;19976;-77
2023/03/22 03:22:00;;;;;;;;;;;;;;;6.70;100.00;92409.28;4953271;29;19921;-77
2023/03/22 03:24:28;;;;;;;;;;;;;;;6.68;100.00;92413.97;4947964;28;20277;-77
2023/03/22 03:27:03;;;;;;;;;;;;;;;6.67;100.00;92415.03;4972729;28;19910;-77
2023/03/22 03:29:47;;;;;;;;;;;;;;;6.65;100.00;92414.50;4970682;28;20431;-77
2023/03/22 03:32:13;;;;;;;;;;;;;;;6.64;100.00;92418.94;4970362;28;19995;-77
2023/03/22 03:35:00;;;;;;;;;;;;;;;6.62;100.00;92409.81;4971189;28;19910;-77
2023/03/22 03:37:34;;;;;;;;;;;;;;;6.59;100.00;92411.13;4972534;28;19989;-77
2023/03/22 03:40:07;;;;;;;;;;;;;;;6.60;100.00;92417.13;4966048;28;19914;-77
2023/03/22 03:42:36;;;;;;;;;;;;;;;6.60;100.00;92417.13;4967948;28;20412;-77
2023/03/22 03:45:04;;;;;;;;;;;;;;;6.62;100.00;92422.81;4953126;29;19929;-77
2023/03/22 03:47:30;;;;;;;;;;;;;;;6.61;100.00;92414.25;4970650;28;20292;-77
2023/03/22 03:49:56;;;;;;;;;;;;;;;6.62;100.00;92415.00;4963720;28;19910;-77
2023/03/22 03:52:23;;;;;;;;;;;;;;;6.61;100.00;92416.06;4971344;28;19914;-77
2023/03/22 03:54:49;;;;;;;;;;;;;;;6.60;100.00;92414.53;4955190;28;19976;-77
2023/03/22 03:57:18;;;;;;;;;;;;;;;6.58;100.00;92408.81;4955228;28;20459;-77
2023/03/22 03:59:44;;;;;;;;;;;;;;;6.56;100.00;92408.28;4967158;28;20005;-77
2023/03/22 04:02:18;;;;;;;;;;;;;;;6.57;100.00;92412.44;4951683;29;19957;-77
2023/03/22 04:04:44;;;;;;;;;;;;;;;6.55;100.00;92410.09;4959017;28;19961;-77
2023/03/22 04:07:09;;;;;;;;;;;;;;;6.56;100.00;92408.28;4970944;28;20398;-77
2023/03/22 04:09:37;;;;;;;;;;;;;;;6.55;100.00;92417.09;4953788;28;20295;-77
2023/03/22 04:12:13;;;;;;;;;;;;;;;6.52;100.00;92415.81;4951571;29;20288;-77
2023/03/22 04:14:40;;;;;;;;;;;;;;;6.51;100.00;92411.66;4951474;29;19922;-77
2023/03/22 04:17:15;;;;;;;;;;;;;;;6.50;100.00;92409.31;4952977;28;19918;-77
2023/03/22 04:19:43;;;;;;;;;;;;;;;6.49;100.00;92415.56;4952409;28;20412;-77
2023/03/22 04:22:13;;;;;;;;;;;;;;;6.46;100.00;92414.25;4974889;28;19918;-77
2023/03/22 04:24:42;;;;;;;;;;;;;;;6.46;100.00;92411.66;4966884;28;20013;-77
2023/03/22 04:27:07;;;;;;;;;;;;;;;6.45;100.00;92421.28;4951757;29;20377;-77
2023/03/22 04:29:51;;;;;;;;;;;;;;;6.45;100.00;92418.69;4956121;28;19941;-77
2023/03/22 04:32:33;;;;;;;;;;;;;;;6.45;100.00;92412.72;4970674;28;19918;-77
2023/03/22 04:34:59;;;;;;;;;;;;;;;6.44;100.00;92413.75;4970598;28;20341;-76
2023/03/22 04:37:25;;;;;;;;;;;;;;;6.44;100.00;92417.13;4970630;28;19914;-76
2023/03/22 04:40:15;;;;;;;;;;;;;;;6.43;100.00;92420.75;4966844;28;19973;-76
2023/03/22 04:42:47;;;;;;;;;;;;;;;6.42;100.00;92418.44;4953914;29;19922;-77
2023/03/22 04:45:20;;;;;;;;;;;;;;;6.40;100.00;92417.94;4979420;28;19965;-77
2023/03/22 04:47:52;;;;;;;;;;;;;;;6.38;100.00;92425.19;4967065;28;19934;-77
2023/03/22 04:50:17;;;;;;;;;;;;;;;6.36;100.00;92424.69;4953272;28;20357;-77
2023/03/22 04:52:50;;;;;;;;;;;;;;;6.33;100.00;92422.63;4972618;28;19925;-77
2023/03/22 04:55:16;;;;;;;;;;;;;;;6.30;100.00;92416.09;4974195;28;19918;-77
2023/03/22 04:57:43;;;;;;;;;;;;;;;6.28;100.00;92427.78;4974268;28;19910;-77
2023/03/22 05:00:09;;;;;;;;;;;;;;;6.26;100.00;92428.06;4970395;28;20357;-77
2023/03/22 05:02:39;;;;;;;;;;;;;;;6.28;100.00;92427.78;4955352;28;19925;-77
2023/03/22 05:05:06;;;;;;;;;;;;;;;6.28;100.00;92436.38;4988228;28;19922;-77
2023/03/22 05:07:38;;;;;;;;;;;;;;;6.27;100.00;92434.81;4973960;28;19992;-77
2023/03/22 05:10:04;;;;;;;;;;;;;;;6.25;100.00;92431.69;4973251;28;20382;-77
2023/03/22 05:12:30;;;;;;;;;;;;;;;6.23;100.00;92438.97;4973410;28;20364;-77
2023/03/22 05:15:16;;;;;;;;;;;;;;;6.19;100.00;92432.72;4975083;28;19918;-77
2023/03/22 05:17:41;;;;;;;;;;;;;;;6.20;100.00;92442.09;4972840;28;19925;-77
2023/03/22 05:20:09;;;;;;;;;;;;;;;6.19;100.00;92435.31;4973459;28;19925;-77
2023/03/22 05:22:39;;;;;;;;;;;;;;;6.17;100.00;92443.41;4973648;28;19922;-77
2023/03/22 05:25:07;;;;;;;;;;;;;;;6.16;100.00;92444.44;4973506;28;19922;-77
2023/03/22 05:27:33;;;;;;;;;;;;;;;6.16;100.00;92441.81;4973437;28;19910;-77
2023/03/22 05:30:08;;;;;;;;;;;;;;;6.16;100.00;92449.63;4973194;28;20005;-77
2023/03/22 05:32:58;;;;;;;;;;;;;;;6.19;100.00;92454.31;4970479;28;19918;-77
2023/03/22 05:35:25;;;;;;;;;;;;;;;6.23;100.00;92451.97;4971995;28;19917;-77
2023/03/22 05:37:53;;;;;;;;;;;;;;;6.27;100.00;92458.22;4951648;28;20247;-77
2023/03/22 05:40:20;;;;;;;;;;;;;;;6.32;100.00;92450.41;4968831;28;19918;-77
2023/03/22 05:42:45;;;;;;;;;;;;;;;6.35;100.00;92459.50;4946517;28;19922;-77
2023/03/22 05:45:24;;;;;;;;;;;;;;;6.38;100.00;92457.19;4949254;28;19918;-79
2023/03/22 05:48:22;;;;;;;;;;;;;;;6.42;100.00;92458.22;4945533;28;19927;-76
2023/03/22 05:50:47;;;;;;;;;;;;;;;6.54;100.00;92451.97;4963685;28;20481;-79
2023/03/22 05:53:13;;;;;;;;;;;;;;;6.71;100.00;92449.88;4953627;28;19922;-81
2023/03/22 05:55:49;;;;;;;;;;;;;;;6.93;100.00;92461.78;4961966;28;19925;-82
2023/03/22 05:58:17;;;;;;;;;;;;;;;7.15;100.00;92449.25;4959720;28;19918;-80
2023/03/22 06:00:48;;;;;;;;;;;;;;;7.47;100.00;92455.91;4968766;28;20136;-81
2023/03/22 06:03:25;;;;;;;;;;;;;;;7.82;100.00;92457.56;4969863;28;20000;-81
2023/03/22 06:06:00;;;;;;;;;;;;;;;8.19;100.00;92460.72;4967386;28;20399;-80
2023/03/22 06:08:44;;;;;;;;;;;;;;;8.58;100.00;92459.94;4956375;28;19913;-78
2023/03/22 06:11:10;;;;;;;;;;;;;;;8.97;98.94;92459.84;4975438;28;19918;-78
2023/03/22 06:13:36;;;;;;;;;;;;;;;9.32;95.25;92463.94;4959054;28;19957;-79
2023/03/22 06:16:03;;;;;;;;;;;;;;;9.69;91.47;92457.22;4974187;28;19914;-78
2023/03/22 06:18:30;;;;;;;;;;;;;;;10.13;90.31;92453.50;4975231;28;20420;-79
2023/03/22 06:21:03;;;;;;;;;;;;;;;10.53;86.54;92456.59;4974978;28;19914;-78
2023/03/22 06:23:28;;;;;;;;;;;;;;;10.92;83.59;92454.66;4974809;28;19918;-79
2023/03/22 06:25:54;;;;;;;;;;;;;;;11.36;83.54;92455.97;4975993;28;19926;-78
2023/03/22 06:28:19;;;;;;;;;;;;;;;11.73;79.91;92457.63;4972765;28;19996;-79
2023/03/22 06:30:53;;;;;;;;;;;;;;;11.94;76.96;92459.84;4980932;28;19914;-78
2023/03/22 06:33:31;;;;;;;;;;;;;;;12.32;75.52;92462.97;4976111;28;19933;-79
2023/03/22 06:36:03;;;;;;;;;;;;;;;12.69;72.56;92468.94;4962941;28;19921;-79
2023/03/22 06:38:37;;;;;;;;;;;;;;;12.99;71.43;92464.81;4968778;28;20255;-79
2023/03/22 06:41:03;;;;;;;;;;;;;;;13.39;69.56;92461.44;4962010;28;19921;-79
2023/03/22 06:43:28;;;;;;;;;;;;;;;13.86;67.96;92462.50;4968560;28;20013;-79
2023/03/22 06:46:04;;;;;;;;;;;;;;;14.41;66.96;92465.69;4959511;28;19926;-78
2023/03/22 06:48:36;;;;;;;;;;;;;;;14.71;64.74;92467.41;4958613;28;20359;-79
2023/03/22 06:51:16;;;;;;;;;;;;;;;15.16;63.04;92474.94;4981304;28;19925;-77
2023/03/22 06:53:42;;;;;;;;;;;;;;;15.23;59.86;92477.09;4971352;28;19937;-78
2023/03/22 06:56:19;;;;;;;;;;;;;;;15.42;59.44;92481.97;4971936;28;19918;-79
2023/03/22 06:58:50;;;;;;;;;;;;;;;16.06;59.34;92475.84;4971603;28;20159;-77
2023/03/22 07:01:26;;;;;;;;;;;;;;;16.49;55.66;92476.66;4973068;28;19925;-77
2023/03/22 07:03:58;;;;;;;;;;;;;;;16.71;55.75;92471.03;4956924;29;19921;-78
2023/03/22 07:06:31;;;;;;;;;;;;;;;16.90;54.95;92477.72;4956930;29;19981;-78
2023/03/22 07:08:58;;;;;;;;;;;;;;;17.25;54.52;92483.47;4956429;29;19930;-78
2023/03/22 07:11:35;;;;;;;;;;;;;;;18.25;49.95;92491.16;4955388;28;19914;-78
2023/03/22 07:14:30;;;;;;;;;;;;;;;18.08;50.26;92492.94;4972828;28;19914;-78
2023/03/22 07:17:34;;;;;;;;;;;;;;;18.81;47.29;92491.28;4958350;28;19969;-78
2023/03/22 07:20:18;;;;;;;;;;;;;;;18.58;47.84;92484.94;4972567;28;19961;-78
2023/03/22 07:23:03;;;;;;;;;;;;;;;17.92;47.60;92500.00;4956558;29;19914;-78
2023/03/22 07:25:36;;;;;;;;;;;;;;;17.34;49.58;92493.94;4973084;28;19918;-78
2023/03/22 07:28:30;;;;;;;;;;;;;;;16.70;49.24;92495.91;4956273;29;20372;-80
2023/03/22 07:31:15;;;;;;;;;;;;;;;15.86;52.01;92495.81;4972316;28;19915;-78
2023/03/22 07:33:48;;;;;;;;;;;;;;;15.90;52.55;92496.72;4973568;28;20303;-78
2023/03/22 07:36:15;;;;;;;;;;;;;;;15.76;53.39;92499.59;4956832;28;19946;-77
2023/03/22 07:39:04;;;;;;;;;;;;;;;15.58;52.89;92498.84;4983618;28;19921;-78
2023/03/22 07:49:08;;;;;;;;;;;;;;;15.25;54.67;92503.91;4938994;29;19969;-77
2023/03/22 07:52:15;;;;;;;;;;;;;;;14.90;56.10;92498.69;4938819;28;19919;-78
2023/03/22 07:54:56;;;;;;;;;;;;;;;14.69;55.72;92497.78;4970247;28;19978;-78
2023/03/22 07:57:34;;;;;;;;;;;;;;;14.55;56.73;92506.63;4970173;28;19915;-78
2023/03/22 08:00:12;;;;;;;;;;;;;;;14.77;57.35;92503.06;4970501;28;19922;-79
2023/03/22 08:03:12;;;;;;;;;;;;;;;14.60;57.53;92502.28;4970234;28;19915;-79
2023/03/22 08:06:08;;;;;;;;;;;;;;;14.39;58.37;92505.50;4971122;28;19930;-79
2023/03/22 08:08:35;;;;;;;;;;;;;;;14.66;57.25;92498.41;4939998;29;20305;-79
2023/03/22 08:11:02;;;;;;;;;;;;;;;14.93;56.64;92498.09;4970671;28;19942;-79
2023/03/22 08:13:47;;;;;;;;;;;;;;;14.99;56.17;92503.94;4954390;29;20365;-79
2023/03/22 08:16:19;;;;;;;;;;;;;;;14.54;56.63;92504.25;4970187;28;19922;-79
2023/03/22 08:21:53;;;;;;;;;;;;;;;14.70;58.13;92496.69;4953542;29;19921;-79
2023/03/22 08:24:57;;;;;;;;;;;;;;;14.96;58.10;92501.94;4939716;29;19918;-79
2023/03/22 08:27:30;;;;;;;;;;;;;;;14.48;57.44;92508.16;4941002;29;19919;-79
2023/03/22 08:29:58;;;;;;;;;;;;;;;14.60;58.59;92510.97;4957332;28;19942;-77
2023/03/22 08:32:37;;;;;;;;;;;;;;;14.44;58.39;92502.72;4941824;29;19915;-77
2023/03/22 08:35:04;;;;;;;;;;;;;;;14.34;59.44;92513.53;4941792;29;19914;-79
2023/03/22 08:37:31;;;;;;;;;;;;;;;14.46;58.60;92515.59;4957115;28;19917;-77
2023/03/22 08:40:05;;;;;;;;;;;;;;;14.61;57.83;92514.38;4957252;29;20333;-79
2023/03/22 08:42:36;;;;;;;;;;;;;;;14.80;58.17;92514.06;4943691;29;20480;-79
2023/03/22 08:45:09;;;;;;;;;;;;;;;14.90;57.89;92519.00;4960397;29;19930;-79
2023/03/22 08:47:39;;;;;;;;;;;;;;;14.90;57.04;92513.72;4961058;28;20399;-79
2023/03/22 08:50:18;;;;;;;;;;;;;;;14.83;58.57;92514.19;4976869;28;19922;-79
2023/03/22 08:52:55;;;;;;;;;;;;;;;15.13;56.97;92512.47;4960775;28;19914;-79
2023/03/22 08:55:43;;;;;;;;;;;;;;;15.22;56.02;92501.91;4976821;28;19953;-79
2023/03/22 08:58:10;;;;;;;;;;;;;;;14.99;56.85;92517.13;4961135;29;19921;-79
2023/03/22 09:00:59;;;;;;;;;;;;;;;15.12;58.20;92525.97;4959978;29;19961;-79
2023/03/22 09:03:52;;;;;;;;;;;;;;;14.96;57.01;92512.50;4961998;28;19965;-79
2023/03/22 09:06:29;;;;;;;;;;;;;;;14.62;58.27;92518.56;4960601;29;19914;-80
2023/03/22 09:08:56;;;;;;;;;;;;;;;15.27;56.12;92517.56;4961521;29;20376;-79
2023/03/22 09:11:25;;;;;;;;;;;;;;;15.40;56.56;92515.81;4960070;29;20411;-80
2023/03/22 09:13:50;;;;;;;;;;;;;;;15.43;55.62;92509.91;4961527;28;19914;-79
2023/03/22 09:16:17;;;;;;;;;;;;;;;15.63;56.78;92513.75;4976130;28;19910;-79
2023/03/22 09:18:45;;;;;;;;;;;;;;;15.71;57.24;92507.66;4976335;28;19957;-79
2023/03/22 09:21:14;;;;;;;;;;;;;;;15.04;57.96;92517.00;4975910;28;19914;-79
2023/03/22 09:24:09;;;;;;;;;;;;;;;14.94;58.18;92519.94;4959887;29;19922;-79
2023/03/22 09:26:39;;;;;;;;;;;;;;;14.82;58.90;92515.31;4958934;29;20205;-79
2023/03/22 09:29:07;;;;;;;;;;;;;;;15.14;57.41;92523.78;4960657;28;19923;-79
2023/03/22 09:31:32;;;;;;;;;;;;;;;15.18;57.59;92514.94;4977996;28;19917;-79
2023/03/22 09:34:15;;;;;;;;;;;;;;;15.31;56.51;92523.75;4995759;28;19957;-79
2023/03/22 09:36:41;;;;;;;;;;;;;;;15.83;57.01;92517.56;4995214;28;19920;-78
2023/03/22 09:39:19;;;;;;;;;;;;;;;15.67;55.71;92514.66;4993891;28;19914;-79
2023/03/22 09:42:10;;;;;;;;;;;;;;;15.77;55.07;92513.56;4978492;28;19914;-79
2023/03/22 09:45:11;;;;;;;;;;;;;;;15.67;55.34;92509.38;4975009;28;19949;-78
2023/03/22 09:47:41;;;;;;;;;;;;;;;15.61;57.13;92511.41;4978455;28;19914;-79
2023/03/22 09:50:33;;;;;;;;;;;;;;;15.61;55.03;92508.78;4979455;28;19914;-80
2023/03/22 09:52:59;;;;;;;;;;;;;;;15.55;57.58;92502.09;4977950;28;19945;-79
2023/03/22 09:55:36;;;;;;;;;;;;;;;15.87;55.46;92500.00;4978559;28;19918;-78
2023/03/22 09:58:09;;;;;;;;;;;;;;;15.80;56.51;92502.34;4978211;28;19914;-79
2023/03/22 10:00:41;;;;;;;;;;;;;;;15.56;55.94;92500.28;4979632;28;19918;-79
2023/03/22 10:03:30;;;;;;;;;;;;;;;15.86;55.70;92495.03;4978987;28;20323;-79
2023/03/22 10:06:13;;;;;;;;;;;;;;;15.59;56.39;92497.00;4978847;28;19929;-79
2023/03/22 10:08:53;;;;;;;;;;;;;;;15.75;56.28;92494.63;4994398;28;19917;-79
2023/03/22 10:11:23;;;;;;;;;;;;;;;15.68;56.61;92495.09;4979767;28;19914;-79
2023/03/22 10:14:06;;;;;;;;;;;;;;;15.64;56.80;92496.03;4980342;28;19940;-79
2023/03/22 10:16:46;;;;;;;;;;;;;;;16.10;56.09;92495.22;4994671;28;19913;-79
2023/03/22 10:19:45;;;;;;;;;;;;;;;16.05;54.63;92481.44;4977791;28;19914;-79
2023/03/22 10:22:16;;;;;;;;;;;;;;;16.05;54.99;92482.19;4979422;28;19914;-79
2023/03/22 10:24:48;;;;;;;;;;;;;;;16.03;54.41;92485.16;4978256;28;20434;-79
2023/03/22 10:27:15;;;;;;;;;;;;;;;15.87;54.71;92486.78;4979916;28;19921;-78
2023/03/22 10:29:43;;;;;;;;;;;;;;;16.17;51.87;92484.16;4977514;28;19989;-78
2023/03/22 10:32:13;;;;;;;;;;;;;;;16.18;52.27;92486.47;4977691;28;20003;-78
2023/03/22 10:34:56;;;;;;;;;;;;;;;16.28;50.86;92492.47;4977947;28;20380;-78
2023/03/22 10:37:30;;;;;;;;;;;;;;;16.27;50.42;92483.00;4977852;28;20029;-78
2023/03/22 10:40:01;;;;;;;;;;;;;;;16.10;50.55;92489.16;4978203;28;19918;-77
2023/03/22 10:42:28;;;;;;;;;;;;;;;16.32;52.50;92480.94;4976470;28;19921;-78
2023/03/22 10:45:13;;;;;;;;;;;;;;;16.23;51.94;92482.88;4977730;28;19918;-78
2023/03/22 10:47:52;;;;;;;;;;;;;;;16.40;51.05;92482.00;4976430;28;19914;-78
2023/03/22 10:50:30;;;;;;;;;;;;;;;16.40;52.28;92485.41;4977526;28;20005;-78
2023/03/22 10:53:15;;;;;;;;;;;;;;;16.58;51.29;92474.72;4977177;28;19914;-78
2023/03/22 10:56:04;;;;;;;;;;;;;;;16.69;50.07;92478.50;4977482;28;19914;-78
2023/03/22 10:58:32;;;;;;;;;;;;;;;16.08;51.02;92476.28;4977987;28;20056;-78
2023/03/22 11:01:10;;;;;;;;;;;;;;;16.24;52.48;92473.84;4977005;28;19910;-78
2023/03/22 11:03:47;;;;;;;;;;;;;;;16.25;51.96;92475.41;4977604;28;19914;-78
2023/03/22 11:06:28;;;;;;;;;;;;;;;16.06;51.63;92465.28;4978683;28;19918;-79
2023/03/22 11:09:00;;;;;;;;;;;;;;;16.42;50.73;92463.94;4977043;28;19914;-78
2023/03/22 11:11:45;;;;;;;;;;;;;;;16.63;50.90;92458.66;4978123;28;20376;-77
2023/03/22 11:14:37;;;;;;;;;;;;;;;16.42;50.23;92470.00;4976287;28;19914;-79
2023/03/22 11:17:16;;;;;;;;;;;;;;;16.38;52.11;92463.81;4993585;28;19914;-79
2023/03/22 11:19:58;;;;;;;;;;;;;;;16.54;48.96;92460.59;4977764;28;19921;-79
2023/03/22 11:22:28;;;;;;;;;;;;;;;16.60;51.05;92459.31;4978133;28;19914;-79
2023/03/22 11:24:58;;;;;;;;;;;;;;;16.64;49.71;92460.97;4978705;28;19918;-79
2023/03/22 11:27:31;;;;;;;;;;;;;;;16.84;50.18;92469.22;4977989;28;19961;-79
2023/03/22 11:30:20;;;;;;;;;;;;;;;16.84;49.25;92458.63;4978819;28;19969;-79
2023/03/22 11:33:24;;;;;;;;;;;;;;;16.96;49.77;92471.16;4978676;28;19960;-79
2023/03/22 11:35:57;;;;;;;;;;;;;;;16.77;48.34;92464.41;4957381;29;20037;-79
2023/03/22 11:38:28;;;;;;;;;;;;;;;16.95;49.82;92469.59;4986490;28;19952;-79
2023/03/22 11:40:59;;;;;;;;;;;;;;;17.22;47.28;92458.41;4975837;28;19914;-79
2023/03/22 11:43:33;;;;;;;;;;;;;;;17.05;48.46;92471.84;4976845;28;19917;-79
2023/03/22 11:45:59;;;;;;;;;;;;;;;17.17;48.04;92461.28;4976840;28;19918;-78
2023/03/22 11:48:26;;;;;;;;;;;;;;;16.97;48.95;92467.41;4976527;28;19925;-79
2023/03/22 11:50:52;;;;;;;;;;;;;;;17.11;48.13;92459.16;4975658;28;19921;-78
2023/03/22 11:53:21;;;;;;;;;;;;;;;17.11;48.75;92457.28;4991406;28;19916;-79
2023/03/22 11:55:47;;;;;;;;;;;;;;;17.02;47.83;92465.34;4991294;28;19996;-80
2023/03/22 11:58:25;;;;;;;;;;;;;;;16.88;49.60;92454.25;4976831;28;19964;-80
2023/03/22 12:00:52;;;;;;;;;;;;;;;16.97;49.33;92452.31;4975623;28;19924;-79
2023/03/22 12:03:21;;;;;;;;;;;;;;;16.94;48.86;92446.91;4978886;28;19918;-79
2023/03/22 12:05:48;;;;;;;;;;;;;;;17.06;48.22;92441.63;4980133;28;19918;-79
2023/03/22 12:08:21;;;;;;;;;;;;;;;17.16;48.57;92438.59;4980912;28;19981;-78
2023/03/22 12:10:50;;;;;;;;;;;;;;;17.12;48.22;92437.69;4980762;28;19914;-79
2023/03/22 12:13:41;;;;;;;;;;;;;;;17.10;48.66;92444.41;4979627;28;20273;-77
2023/03/22 12:16:10;;;;;;;;;;;;;;;17.14;47.41;92440.78;4978914;28;20269;-78
2023/03/22 12:18:36;;;;;;;;;;;;;;;17.18;47.51;92440.88;4977732;28;20010;-78
2023/03/22 12:21:01;;;;;;;;;;;;;;;17.17;48.89;92432.19;4977325;28;19929;-79
2023/03/22 12:23:28;;;;;;;;;;;;;;;17.30;47.76;92437.50;4977895;28;20292;-79
2023/03/22 12:26:17;;;;;;;;;;;;;;;16.84;48.29;92427.72;4980197;28;20013;-79
2023/03/22 12:28:49;;;;;;;;;;;;;;;16.90;49.54;92420.34;4975455;28;19994;-80
2023/03/22 12:31:16;;;;;;;;;;;;;;;17.20;49.04;92415.69;4976979;28;19914;-79
2023/03/22 12:33:47;;;;;;;;;;;;;;;17.22;48.28;92415.34;4979417;28;20280;-79
2023/03/22 12:36:15;;;;;;;;;;;;;;;17.22;48.41;92413.44;4979264;28;19914;-79
2023/03/22 12:38:47;;;;;;;;;;;;;;;17.21;48.03;92411.91;4977305;28;19914;-78
2023/03/22 12:41:30;;;;;;;;;;;;;;;17.37;47.73;92409.41;4978530;28;19914;-78
2023/03/22 12:44:01;;;;;;;;;;;;;;;17.33;47.56;92405.88;4993511;28;19918;-78
2023/03/22 12:46:30;;;;;;;;;;;;;;;17.26;46.90;92398.47;4978209;28;19928;-78
2023/03/22 12:48:59;;;;;;;;;;;;;;;17.33;48.17;92397.16;4977433;28;19914;-78
2023/03/22 12:51:25;;;;;;;;;;;;;;;17.35;47.90;92401.03;4979030;28;20430;-78
2023/03/22 12:53:52;;;;;;;;;;;;;;;17.21;46.89;92390.00;4978936;28;19922;-78
2023/03/22 12:56:20;;;;;;;;;;;;;;;17.14;47.72;92387.13;4993913;28;19964;-80
2023/03/22 12:58:48;;;;;;;;;;;;;;;17.27;46.06;92381.50;4978589;28;19917;-80
2023/03/22 13:01:19;;;;;;;;;;;;;;;17.45;47.41;92381.28;4979812;28;20388;-79
2023/03/22 13:03:46;;;;;;;;;;;;;;;17.26;46.88;92379.97;4979641;28;19921;-79
2023/03/22 13:06:29;;;;;;;;;;;;;;;17.56;46.21;92387.72;4978931;28;19921;-80
2023/03/22 13:09:01;;;;;;;;;;;;;;;17.56;44.98;92374.47;4979376;28;20017;-79
2023/03/22 13:11:27;;;;;;;;;;;;;;;17.37;45.48;92377.66;4994084;28;19914;-80
2023/03/22 13:13:52;;;;;;;;;;;;;;;17.13;44.87;92370.47;4978243;28;20169;-80
2023/03/22 13:16:21;;;;;;;;;;;;;;;17.15;43.88;92370.91;4979994;28;20012;-80
2023/03/22 13:18:50;;;;;;;;;;;;;;;17.12;45.09;92368.16;4979042;28;19910;-79
2023/03/22 13:21:20;;;;;;;;;;;;;;;16.99;44.29;92359.44;4978061;28;19924;-80
2023/03/22 13:24:00;;;;;;;;;;;;;;;17.26;45.73;92361.44;4979437;28;19940;-80
2023/03/22 13:26:35;;;;;;;;;;;;;;;17.00;44.78;92366.25;4977292;28;19914;-79
2023/03/22 13:29:06;;;;;;;;;;;;;;;16.99;45.79;92359.44;4979359;28;19918;-78
2023/03/22 13:31:37;;;;;;;;;;;;;;;17.15;45.62;92357.69;4979397;28;19914;-79